Time;durP1;ratioP1;P1;durP2;ratioP2;P2;SDS_P1;SDS_P2;PMS_P1;PMS_P2;Temp;Humidity;BMP_temperature;BMP_pressure;BME280_temperature;BME280_humidity;BME280_pressure;Samples;Min_cycle;Max_cycle;Signal;HPM_P1;HPM_P2
2021/12/20 00:01:54;;;;;;;17.65;12.02;;;;;;;7.54;100.00;100595.53;5088288;28;20386;-80
2021/12/20 00:04:22;;;;;;;19.00;12.47;;;;;;;7.33;100.00;100593.09;5061175;28;20384;-80
2021/12/20 00:06:49;;;;;;;17.95;12.70;;;;;;;7.52;100.00;100601.47;5091610;28;20911;-80
2021/12/20 00:09:19;;;;;;;17.87;11.80;;;;;;;7.36;100.00;100584.06;5090378;28;21115;-80
2021/12/20 00:11:46;;;;;;;17.00;11.50;;;;;;;7.36;100.00;100579.28;5091764;28;20384;-80
2021/12/20 00:14:13;;;;;;;19.20;11.65;;;;;;;7.31;100.00;100582.34;5092194;28;20416;-80
2021/12/20 00:16:40;;;;;;;16.25;11.05;;;;;;;7.42;100.00;100590.94;5092109;28;20403;-80
2021/12/20 00:19:11;;;;;;;15.68;10.60;;;;;;;7.39;100.00;100588.88;5091346;28;20748;-80
2021/12/20 00:21:38;;;;;;;18.52;11.50;;;;;;;7.33;100.00;100590.31;5092518;28;20461;-80
2021/12/20 00:24:06;;;;;;;16.10;9.77;;;;;;;7.18;100.00;100582.84;5092621;28;20713;-80
2021/12/20 00:26:33;;;;;;;17.20;10.27;;;;;;;7.32;100.00;100577.59;5085481;28;20405;-80
2021/12/20 00:29:01;;;;;;;15.77;9.80;;;;;;;7.27;100.00;100570.34;5052121;28;20800;-80
2021/12/20 00:31:28;;;;;;;14.20;9.18;;;;;;;7.11;100.00;100575.19;5076864;28;20385;-80
2021/12/20 00:33:56;;;;;;;15.82;9.43;;;;;;;7.40;100.00;100565.44;5091251;28;20387;-79
2021/12/20 00:36:27;;;;;;;16.92;9.55;;;;;;;7.61;100.00;100577.00;5092416;28;20758;-80
2021/12/20 00:41:41;;;;;;;16.25;9.00;;;;;;;7.27;100.00;100564.78;5091214;28;20438;-79
2021/12/20 00:44:08;;;;;;;16.23;8.32;;;;;;;7.07;100.00;100570.72;5090979;28;20388;-80
2021/12/20 00:46:51;;;;;;;15.93;8.73;;;;;;;7.32;100.00;100561.72;5060137;28;20396;-80
2021/12/20 00:49:21;;;;;;;17.60;9.43;;;;;;;7.60;100.00;100553.16;5092085;28;20843;-80
2021/12/20 00:51:48;;;;;;;15.77;9.38;;;;;;;7.43;100.00;100561.13;5091020;28;20863;-80
2021/12/20 00:54:16;;;;;;;16.30;9.48;;;;;;;7.49;100.00;100559.66;5107890;28;20391;-80
2021/12/20 00:56:43;;;;;;;16.88;8.90;;;;;;;7.53;100.00;100566.91;5092213;28;20475;-80
2021/12/20 00:59:10;;;;;;;15.82;9.00;;;;;;;7.56;100.00;100560.59;5091150;28;20950;-80
2021/12/20 01:01:39;;;;;;;14.90;8.45;;;;;;;7.25;100.00;100552.44;5092135;28;20396;-80
2021/12/20 01:04:07;;;;;;;16.23;8.43;;;;;;;7.22;100.00;100550.38;5090984;28;20475;-80
2021/12/20 01:06:34;;;;;;;16.58;9.18;;;;;;;7.23;100.00;100557.53;5092041;28;20396;-80
2021/12/20 01:09:02;;;;;;;17.58;8.65;;;;;;;7.31;100.00;100542.63;5092187;28;20394;-80
2021/12/20 01:11:34;;;;;;;18.15;9.63;;;;;;;7.68;100.00;100540.97;5091723;28;20705;-80
2021/12/20 01:14:02;;;;;;;13.50;8.98;;;;;;;7.69;100.00;100542.59;5091099;28;20720;-80
2021/12/20 01:16:32;;;;;;;14.50;9.02;;;;;;;7.62;100.00;100536.09;5091513;28;20732;-80
2021/12/20 01:19:00;;;;;;;16.98;8.68;;;;;;;7.39;100.00;100541.59;5093425;28;21121;-80
2021/12/20 01:21:31;;;;;;;14.27;7.93;;;;;;;7.75;100.00;100552.25;5094822;28;20388;-80
2021/12/20 01:23:58;;;;;;;15.32;8.65;;;;;;;7.97;100.00;100536.72;5094928;28;20410;-80
2021/12/20 01:26:25;;;;;;;16.45;7.95;;;;;;;7.86;100.00;100532.97;5111317;28;20407;-80
2021/12/20 01:28:54;;;;;;;16.73;8.10;;;;;;;7.86;100.00;100528.16;5078038;28;20404;-80
2021/12/20 01:31:24;;;;;;;13.90;8.40;;;;;;;7.84;100.00;100527.75;5111124;28;20755;-80
2021/12/20 01:33:52;;;;;;;17.37;8.63;;;;;;;7.76;100.00;100522.41;5111326;28;20847;-80
2021/12/20 01:36:19;;;;;;;16.27;7.57;;;;;;;7.72;100.00;100525.16;5095238;28;20380;-79
2021/12/20 01:38:46;;;;;;;11.13;7.20;;;;;;;7.84;100.00;100524.97;5095120;28;20389;-79
2021/12/20 01:41:15;;;;;;;14.87;8.20;;;;;;;7.88;100.00;100511.91;5093800;28;20476;-80
2021/12/20 01:43:44;;;;;;;17.33;7.95;;;;;;;7.83;100.00;100492.75;5094026;28;20384;-80
2021/12/20 01:46:11;;;;;;;12.23;7.13;;;;;;;8.01;100.00;100504.97;5093710;28;20446;-79
2021/12/20 01:48:41;;;;;;;12.90;7.70;;;;;;;8.24;100.00;100513.38;5095165;28;20437;-80
2021/12/20 01:53:41;;;;;;;13.68;7.65;;;;;;;7.98;100.00;100499.38;5095636;28;20423;-79
2021/12/20 01:56:09;;;;;;;16.27;7.85;;;;;;;8.30;100.00;100523.81;5096006;28;20450;-80
2021/12/20 01:58:37;;;;;;;14.20;7.95;;;;;;;8.04;100.00;100503.44;5095182;28;20503;-80
2021/12/20 02:03:43;;;;;;;16.17;8.90;;;;;;;8.40;100.00;100516.78;5095587;28;20393;-80
2021/12/20 02:06:23;;;;;;;14.55;8.77;;;;;;;8.17;100.00;100497.31;5091967;28;20399;-80
2021/12/20 02:08:50;;;;;;;13.98;8.15;;;;;;;8.33;100.00;100505.56;5074022;28;20416;-80
2021/12/20 02:11:19;;;;;;;13.15;7.18;;;;;;;8.25;100.00;100507.44;5074587;28;20390;-80
2021/12/20 02:13:48;;;;;;;13.63;6.43;;;;;;;8.22;100.00;100497.03;5073639;28;20377;-80
2021/12/20 02:16:16;;;;;;;16.13;6.63;;;;;;;8.27;100.00;100496.69;5073408;28;20487;-80
2021/12/20 02:18:43;;;;;;;12.70;5.70;;;;;;;8.25;100.00;100499.06;5084525;28;20400;-80
2021/12/20 02:21:13;;;;;;;10.35;6.25;;;;;;;8.15;100.00;100477.38;5093373;28;20385;-80
2021/12/20 02:23:43;;;;;;;10.65;5.60;;;;;;;8.45;100.00;100489.41;5094587;28;20396;-80
2021/12/20 02:26:16;;;;;;;12.60;6.60;;;;;;;8.29;100.00;100499.91;5093788;28;20393;-80
2021/12/20 02:28:46;;;;;;;13.93;6.53;;;;;;;8.34;100.00;100491.25;5092957;28;20388;-80
2021/12/20 02:39:19;;;;;;;13.80;5.18;;;;;;;8.03;100.00;100491.50;5094151;28;20718;-79
2021/12/20 02:41:46;;;;;;;11.02;4.57;;;;;;;7.88;100.00;100478.53;5093171;28;20400;-79
2021/12/20 02:44:18;;;;;;;11.35;5.85;;;;;;;8.00;100.00;100489.47;5094137;28;20481;-80
2021/12/20 02:47:04;;;;;;;11.30;5.73;;;;;;;8.21;100.00;100481.44;5093132;28;20407;-80
2021/12/20 02:49:32;;;;;;;13.48;5.57;;;;;;;8.46;100.00;100482.69;5093962;28;20395;-80
2021/12/20 02:52:07;;;;;;;11.65;5.50;;;;;;;8.29;100.00;100483.22;5093831;28;20396;-80
2021/12/20 02:54:36;;;;;;;10.55;5.63;;;;;;;8.22;100.00;100458.06;5075932;28;20396;-79
2021/12/20 02:57:04;;;;;;;14.70;6.53;;;;;;;8.04;100.00;100470.81;5093940;28;20716;-80
2021/12/20 02:59:32;;;;;;;14.15;5.90;;;;;;;8.12;100.00;100482.91;5093994;28;20474;-80
2021/12/20 03:02:04;;;;;;;13.05;6.13;;;;;;;7.98;100.00;100485.44;5093856;28;20416;-80
2021/12/20 03:04:33;;;;;;;12.77;5.47;;;;;;;7.84;100.00;100476.84;5093884;28;20376;-79
2021/12/20 03:07:07;;;;;;;10.98;5.22;;;;;;;7.79;100.00;100486.31;5092382;28;20434;-80
2021/12/20 03:09:38;;;;;;;12.07;5.10;;;;;;;7.72;100.00;100477.03;5093740;28;20391;-80
2021/12/20 03:12:08;;;;;;;13.77;5.53;;;;;;;7.67;100.00;100472.59;5093673;28;20388;-80
2021/12/20 03:14:42;;;;;;;14.52;5.32;;;;;;;7.59;100.00;100454.16;5075590;28;20921;-80
2021/12/20 03:17:10;;;;;;;13.68;5.45;;;;;;;7.74;100.00;100466.34;5092489;28;20407;-80
2021/12/20 03:19:39;;;;;;;14.48;5.30;;;;;;;7.61;100.00;100473.25;5093344;28;20384;-80
2021/12/20 03:22:07;;;;;;;10.25;5.30;;;;;;;7.60;100.00;100454.97;5092183;28;20719;-80
2021/12/20 03:24:36;;;;;;;12.00;5.25;;;;;;;7.67;100.00;100455.91;5092158;28;20387;-80
2021/12/20 03:27:06;;;;;;;11.45;5.07;;;;;;;7.76;100.00;100442.53;5092275;28;20404;-80
2021/12/20 03:29:34;;;;;;;13.43;6.32;;;;;;;8.05;100.00;100454.94;5092049;28;21013;-80
2021/12/20 03:32:01;;;;;;;13.77;6.35;;;;;;;7.81;100.00;100456.16;5093075;28;20385;-80
2021/12/20 03:34:28;;;;;;;12.35;6.38;;;;;;;7.85;100.00;100434.75;5091437;28;20404;-80
2021/12/20 03:36:55;;;;;;;12.68;5.70;;;;;;;8.06;100.00;100453.75;5074938;28;20388;-80
2021/12/20 03:39:25;;;;;;;12.32;5.55;;;;;;;8.06;100.00;100440.66;5090850;28;20411;-80
2021/12/20 03:41:52;;;;;;;16.95;6.25;;;;;;;7.70;100.00;100434.88;5108041;28;20412;-80
2021/12/20 03:44:22;;;;;;;14.45;6.00;;;;;;;7.98;100.00;100452.84;5090951;28;20393;-80
2021/12/20 03:46:50;;;;;;;11.55;6.40;;;;;;;8.06;100.00;100446.22;5091690;28;20871;-80
2021/12/20 03:49:17;;;;;;;16.08;6.18;;;;;;;7.89;100.00;100430.03;5092740;28;20392;-80
2021/12/20 03:51:45;;;;;;;12.67;6.10;;;;;;;8.15;100.00;100432.84;5092896;28;20388;-80
2021/12/20 03:54:12;;;;;;;12.80;5.60;;;;;;;8.20;100.00;100435.31;5092728;28;20380;-80
2021/12/20 03:56:39;;;;;;;15.10;6.30;;;;;;;8.26;100.00;100433.03;5092769;28;20373;-80
2021/12/20 03:59:07;;;;;;;15.35;6.30;;;;;;;8.15;100.00;100423.69;5092840;28;20411;-80
2021/12/20 04:01:34;;;;;;;12.43;5.78;;;;;;;7.88;100.00;100422.84;5108530;28;20457;-80
2021/12/20 04:04:02;;;;;;;12.45;6.30;;;;;;;7.82;100.00;100441.06;5091256;28;20449;-80
2021/12/20 04:06:31;;;;;;;18.55;6.72;;;;;;;7.78;100.00;100420.72;5091244;28;20907;-80
2021/12/20 04:09:00;;;;;;;12.18;6.15;;;;;;;7.78;100.00;100423.50;5091751;28;20385;-80
2021/12/20 04:11:27;;;;;;;14.67;6.20;;;;;;;7.88;100.00;100422.84;5092477;28;20462;-80
2021/12/20 04:14:02;;;;;;;14.93;6.40;;;;;;;7.87;100.00;100424.06;5092428;28;20403;-80
2021/12/20 04:16:38;;;;;;;12.65;6.55;;;;;;;7.60;100.00;100424.38;5060720;28;20403;-80
2021/12/20 04:19:06;;;;;;;12.40;6.22;;;;;;;7.73;100.00;100426.59;5092297;28;20412;-80
2021/12/20 04:21:41;;;;;;;12.38;6.05;;;;;;;7.86;100.00;100418.84;5092510;28;20855;-80
2021/12/20 04:24:15;;;;;;;11.20;5.65;;;;;;;7.92;100.00;100422.94;5090921;28;20392;-80
2021/12/20 04:26:43;;;;;;;12.75;6.07;;;;;;;7.85;100.00;100428.34;5092188;28;20942;-80
2021/12/20 04:29:11;;;;;;;12.07;5.72;;;;;;;7.58;100.00;100418.38;5091449;28;20423;-80
2021/12/20 04:31:39;;;;;;;10.93;5.35;;;;;;;7.93;100.00;100424.53;5092463;28;20969;-80
2021/12/20 04:34:06;;;;;;;10.45;5.38;;;;;;;8.13;100.00;100429.63;5091953;28;20384;-80
2021/12/20 04:36:34;;;;;;;10.10;5.60;;;;;;;8.22;100.00;100410.72;5092258;28;20395;-80
2021/12/20 04:39:02;;;;;;;13.10;5.57;;;;;;;8.33;100.00;100419.22;5074103;28;20396;-80
2021/12/20 04:41:29;;;;;;;21.00;7.07;;;;;;;8.32;100.00;100426.75;5091069;28;20441;-80
2021/12/20 04:43:56;;;;;;;11.50;5.77;;;;;;;8.36;100.00;100433.19;5091034;28;20388;-80
2021/12/20 04:46:24;;;;;;;11.52;5.50;;;;;;;8.28;100.00;100413.97;5090868;28;20775;-80
2021/12/20 04:48:51;;;;;;;11.38;5.40;;;;;;;8.38;100.00;100425.25;5091943;28;20384;-80
2021/12/20 04:51:18;;;;;;;11.60;5.00;;;;;;;8.31;100.00;100419.59;5094052;28;20751;-80
2021/12/20 04:53:45;;;;;;;11.43;5.00;;;;;;;8.37;100.00;100403.34;5096298;28;20388;-80
2021/12/20 04:56:13;;;;;;;10.10;5.20;;;;;;;8.37;100.00;100400.56;5096137;28;20384;-80
2021/12/20 04:58:41;;;;;;;10.02;5.30;;;;;;;8.29;100.00;100413.59;5096047;28;20894;-80
2021/12/20 05:01:08;;;;;;;8.10;4.68;;;;;;;8.42;100.00;100414.19;5096146;28;20786;-80
2021/12/20 05:03:35;;;;;;;11.25;5.30;;;;;;;8.31;100.00;100400.09;5095753;28;21024;-80
2021/12/20 05:06:03;;;;;;;9.20;5.25;;;;;;;8.36;100.00;100410.91;5111545;28;20840;-80
2021/12/20 05:08:36;;;;;;;13.30;5.72;;;;;;;8.28;100.00;100414.78;5095993;28;20416;-80
2021/12/20 05:11:04;;;;;;;11.57;5.90;;;;;;;8.21;100.00;100411.06;5094788;28;20873;-80
2021/12/20 05:13:32;;;;;;;10.63;5.72;;;;;;;8.29;100.00;100410.00;5094836;28;20412;-80
2021/12/20 05:16:00;;;;;;;15.00;5.85;;;;;;;8.20;100.00;100420.56;5094755;28;20376;-79
2021/12/20 05:18:27;;;;;;;8.52;5.57;;;;;;;8.08;100.00;100404.91;5095755;28;20406;-80
2021/12/20 05:20:56;;;;;;;10.77;5.38;;;;;;;8.00;100.00;100397.59;5094804;28;20399;-80
2021/12/20 05:23:24;;;;;;;12.65;5.50;;;;;;;8.02;100.00;100422.28;5094444;28;20388;-80
2021/12/20 05:25:51;;;;;;;13.68;5.63;;;;;;;7.83;100.00;100419.59;5094372;28;20731;-80
2021/12/20 05:28:18;;;;;;;11.00;6.28;;;;;;;8.09;100.00;100427.97;5095835;28;20392;-80
2021/12/20 05:30:49;;;;;;;9.37;5.37;;;;;;;8.17;100.00;100416.56;5094349;28;20414;-80
2021/12/20 05:33:18;;;;;;;9.57;5.57;;;;;;;8.28;100.00;100420.34;5094252;28;20743;-80
2021/12/20 05:35:46;;;;;;;14.93;5.78;;;;;;;8.16;100.00;100417.75;5077159;28;20777;-80
2021/12/20 05:38:14;;;;;;;11.75;5.95;;;;;;;7.81;100.00;100406.06;5094080;28;20428;-80
2021/12/20 05:40:41;;;;;;;10.00;5.80;;;;;;;8.20;100.00;100417.78;5095389;28;20389;-80
2021/12/20 05:43:09;;;;;;;12.30;5.78;;;;;;;8.20;100.00;100404.69;5095385;28;20875;-80
2021/12/20 05:45:36;;;;;;;11.65;6.45;;;;;;;8.24;100.00;100413.91;5093966;28;20479;-80
2021/12/20 05:48:04;;;;;;;9.70;5.40;;;;;;;8.25;100.00;100400.78;5093891;28;20404;-80
2021/12/20 05:50:32;;;;;;;9.90;5.68;;;;;;;8.20;100.00;100399.09;5095159;28;21028;-80
2021/12/20 05:52:59;;;;;;;12.40;6.30;;;;;;;8.17;100.00;100404.63;5095182;28;20912;-80
2021/12/20 05:55:26;;;;;;;12.45;5.70;;;;;;;7.79;100.00;100411.19;5095060;28;20388;-80
2021/12/20 05:57:54;;;;;;;9.20;5.25;;;;;;;7.73;100.00;100398.75;5095097;28;20391;-80
2021/12/20 06:00:23;;;;;;;12.30;6.20;;;;;;;7.59;100.00;100401.31;5095053;28;20389;-80
2021/12/20 06:02:51;;;;;;;11.77;6.35;;;;;;;7.67;100.00;100402.22;5092938;28;20713;-80
2021/12/20 06:05:20;;;;;;;11.57;6.27;;;;;;;7.39;100.00;100405.34;5076721;28;20469;-80
2021/12/20 06:07:47;;;;;;;13.85;7.00;;;;;;;7.23;100.00;100401.84;5094764;28;20408;-80
2021/12/20 06:10:17;;;;;;;14.27;7.25;;;;;;;6.97;100.00;100397.00;5110716;28;20396;-80
2021/12/20 06:12:46;;;;;;;9.48;6.22;;;;;;;7.13;100.00;100383.00;5094874;28;20380;-80
2021/12/20 06:15:14;;;;;;;8.77;6.07;;;;;;;6.98;100.00;100406.16;5093243;28;20391;-80
2021/12/20 06:17:41;;;;;;;9.32;6.40;;;;;;;6.97;100.00;100387.84;5094632;28;20385;-79
2021/12/20 06:20:10;;;;;;;8.30;6.10;;;;;;;6.92;100.00;100399.28;5093560;28;20392;-79
2021/12/20 06:22:38;;;;;;;9.57;6.68;;;;;;;7.04;100.00;100390.78;5093349;28;20396;-79
2021/12/20 06:25:06;;;;;;;8.88;6.47;;;;;;;7.21;100.00;100384.72;5094424;28;20388;-80
2021/12/20 06:27:33;;;;;;;9.07;6.35;;;;;;;7.30;100.00;100396.41;5094552;28;20439;-80
2021/12/20 06:30:00;;;;;;;9.98;6.63;;;;;;;7.22;100.00;100389.13;5094467;28;20426;-80
2021/12/20 06:32:28;;;;;;;8.93;6.23;;;;;;;7.13;100.00;100397.69;5091799;28;20921;-80
2021/12/20 06:34:55;;;;;;;9.32;6.55;;;;;;;7.12;100.00;100406.41;5093070;28;20407;-80
2021/12/20 06:37:25;;;;;;;8.55;5.60;;;;;;;6.82;100.00;100403.44;5072703;28;20740;-80
2021/12/20 06:39:54;;;;;;;7.15;5.32;;;;;;;6.73;100.00;100390.94;5072958;28;20448;-80
2021/12/20 06:42:21;;;;;;;8.85;5.68;;;;;;;6.95;100.00;100401.31;5076497;28;20393;-80
2021/12/20 06:44:48;;;;;;;10.35;6.18;;;;;;;6.83;100.00;100420.94;5086688;28;20402;-80
2021/12/20 06:47:21;;;;;;;7.68;5.53;;;;;;;6.80;100.00;100410.56;5084511;28;20748;-80
2021/12/20 06:54:19;;;;;;;8.35;5.10;;;;;;;7.00;100.00;100398.22;5090388;28;20392;-79
2021/12/20 06:56:49;;;;;;;6.93;5.65;;;;;;;7.16;100.00;100423.97;5086091;28;20392;-80
2021/12/20 06:59:17;;;;;;;8.47;5.50;;;;;;;6.87;100.00;100407.91;5092508;28;20463;-80
2021/12/20 07:01:44;;;;;;;6.95;4.68;;;;;;;6.78;100.00;100412.88;5092625;28;20393;-80
2021/12/20 07:04:12;;;;;;;5.90;4.57;;;;;;;6.77;100.00;100411.28;5073013;28;20412;-80
2021/12/20 07:06:39;;;;;;;5.63;4.53;;;;;;;7.01;100.00;100419.31;5085321;28;20400;-80
2021/12/20 07:09:07;;;;;;;6.22;5.13;;;;;;;6.81;100.00;100420.47;5091433;28;20437;-80
2021/12/20 07:11:41;;;;;;;6.45;4.80;;;;;;;6.78;100.00;100410.91;5090483;28;20434;-80
2021/12/20 07:14:09;;;;;;;5.22;4.50;;;;;;;6.82;100.00;100417.34;5068494;28;20424;-80
2021/12/20 07:16:36;;;;;;;5.85;4.55;;;;;;;6.92;100.00;100408.41;5093669;28;20396;-85
2021/12/20 07:19:05;;;;;;;6.80;5.00;;;;;;;6.92;100.00;100415.97;5077388;28;20404;-81
2021/12/20 07:21:32;;;;;;;6.88;5.30;;;;;;;7.05;100.00;100420.19;5086032;28;20384;-80
2021/12/20 07:23:59;;;;;;;7.15;5.03;;;;;;;6.87;100.00;100421.81;5091312;28;20391;-80
2021/12/20 07:26:27;;;;;;;5.85;4.53;;;;;;;6.97;100.00;100416.44;5089073;28;20419;-80
2021/12/20 07:28:55;;;;;;;6.03;4.32;;;;;;;7.07;100.00;100420.63;5105222;28;20392;-81
2021/12/20 07:31:27;;;;;;;5.70;4.40;;;;;;;6.88;100.00;100410.31;5074213;28;20399;-80
2021/12/20 07:33:54;;;;;;;5.85;4.10;;;;;;;6.84;100.00;100417.78;5088802;28;20404;-80
2021/12/20 07:36:22;;;;;;;5.85;4.10;;;;;;;6.98;100.00;100420.81;5090113;28;20400;-81
2021/12/20 07:38:50;;;;;;;6.03;4.60;;;;;;;7.17;100.00;100428.34;5089684;28;22639;-80
2021/12/20 07:41:19;;;;;;;4.85;3.90;;;;;;;6.85;100.00;100407.47;5087430;28;20396;-80
2021/12/20 07:43:48;;;;;;;6.63;4.78;;;;;;;6.92;100.00;100424.28;5093345;28;20381;-81
2021/12/20 07:46:16;;;;;;;7.50;4.93;;;;;;;6.70;100.00;100398.03;5092660;28;20482;-80
2021/12/20 07:48:44;;;;;;;6.60;4.87;;;;;;;6.86;100.00;100420.19;5074916;28;21090;-80
2021/12/20 07:51:11;;;;;;;5.97;4.17;;;;;;;6.85;100.00;100424.13;5108530;28;20400;-81
2021/12/20 07:53:39;;;;;;;7.40;4.53;;;;;;;6.52;100.00;100404.38;5081921;28;20397;-81
2021/12/20 07:56:06;;;;;;;6.68;4.60;;;;;;;6.77;100.00;100422.41;5080072;28;21119;-81
2021/12/20 07:58:34;;;;;;;7.53;4.70;;;;;;;6.94;100.00;100421.94;5068948;28;20396;-81
2021/12/20 08:01:04;;;;;;;7.32;4.78;;;;;;;7.01;100.00;100430.44;5085683;28;20400;-81
2021/12/20 08:03:35;;;;;;;5.85;3.83;;;;;;;6.84;100.00;100423.34;5085204;28;20385;-82
2021/12/20 08:06:02;;;;;;;4.78;3.38;;;;;;;6.88;100.00;100429.78;5086786;28;20491;-82
2021/12/20 08:08:29;;;;;;;5.20;3.25;;;;;;;6.97;100.00;100421.19;5071840;28;20408;-81
2021/12/20 08:10:57;;;;;;;5.30;3.50;;;;;;;6.75;100.00;100427.50;5072504;28;20452;-81
2021/12/20 08:13:24;;;;;;;5.07;3.28;;;;;;;7.07;100.00;100426.19;5090220;28;21149;-82
2021/12/20 08:15:53;;;;;;;8.30;4.55;;;;;;;6.78;100.00;100432.31;5089770;28;20467;-82
2021/12/20 08:18:20;;;;;;;7.45;4.45;;;;;;;6.61;100.00;100446.63;5087151;28;20392;-83
2021/12/20 08:20:48;;;;;;;9.73;5.68;;;;;;;6.41;100.00;100425.56;5089008;28;20403;-85
2021/12/20 08:23:18;;;;;;;9.43;5.90;;;;;;;6.57;100.00;100429.09;5105032;28;20456;-82
2021/12/20 08:25:45;;;;;;;11.23;6.40;;;;;;;6.55;100.00;100431.44;5089703;28;20407;-86
2021/12/20 08:28:12;;;;;;;11.13;6.47;;;;;;;6.44;100.00;100430.38;5090049;28;20453;-86
2021/12/20 08:30:41;;;;;;;13.23;7.43;;;;;;;6.80;100.00;100427.22;5089838;28;20397;-86
2021/12/20 08:33:09;;;;;;;11.73;6.72;;;;;;;6.60;100.00;100428.38;5074326;28;20416;-85
2021/12/20 08:35:36;;;;;;;11.95;6.55;;;;;;;6.59;100.00;100426.75;5070311;28;20505;-88
2021/12/20 08:38:06;;;;;;;10.45;6.05;;;;;;;6.50;100.00;100424.19;5066321;28;20392;-88
2021/12/20 08:40:34;;;;;;;12.82;7.07;;;;;;;6.61;100.00;100424.41;5055111;28;20464;-87
2021/12/20 08:43:01;;;;;;;12.38;6.63;;;;;;;6.87;100.00;100427.34;5052057;28;20408;-88
2021/12/20 08:45:28;;;;;;;14.50;7.32;;;;;;;6.60;100.00;100428.38;5048676;28;20400;-87
2021/12/20 08:47:56;;;;;;;12.70;7.10;;;;;;;6.73;100.00;100433.44;5050720;28;20404;-87
2021/12/20 08:50:24;;;;;;;15.23;7.53;;;;;;;6.53;100.00;100428.22;5062454;28;20405;-87
2021/12/20 08:52:52;;;;;;;57.85;10.02;;;;;;;6.62;100.00;100426.84;5069209;28;20438;-86
2021/12/20 08:55:21;;;;;;;107.28;13.10;;;;;;;6.84;100.00;100440.03;5062862;28;20432;-87
2021/12/20 08:57:49;;;;;;;15.05;7.78;;;;;;;6.79;100.00;100437.53;5077525;28;20439;-89
2021/12/20 09:00:20;;;;;;;133.60;11.82;;;;;;;7.15;100.00;100431.50;5080622;28;20775;-89
2021/12/20 09:02:47;;;;;;;10.98;6.13;;;;;;;6.69;100.00;100423.41;5079890;28;20388;-85
2021/12/20 09:05:15;;;;;;;16.85;6.88;;;;;;;6.61;100.00;100435.53;5061217;28;20468;-87
2021/12/20 09:07:42;;;;;;;12.75;6.75;;;;;;;6.70;100.00;100434.16;5051618;28;20420;-85
2021/12/20 09:10:12;;;;;;;11.40;6.60;;;;;;;6.80;100.00;100430.00;5079503;28;20392;-83
2021/12/20 09:12:40;;;;;;;11.80;6.45;;;;;;;6.88;100.00;100418.66;5099829;28;20534;-85
2021/12/20 09:15:12;;;;;;;10.15;5.93;;;;;;;6.76;100.00;100418.00;5048292;28;20384;-82
2021/12/20 09:17:47;;;;;;;11.95;6.47;;;;;;;6.97;100.00;100426.75;5083641;28;20392;-83
2021/12/20 09:20:19;;;;;;;11.15;6.57;;;;;;;6.79;100.00;100422.81;5080647;28;20388;-79
2021/12/20 09:23:11;;;;;;;9.95;5.90;;;;;;;6.63;100.00;100422.91;5063153;28;20419;-79
2021/12/20 09:25:45;;;;;;;10.80;5.60;;;;;;;6.63;100.00;100419.31;5083665;28;20396;-79
2021/12/20 09:28:14;;;;;;;10.73;6.20;;;;;;;6.62;100.00;100414.94;5085742;28;20740;-79
2021/12/20 09:30:44;;;;;;;10.13;5.13;;;;;;;6.72;100.00;100420.72;5083092;28;20934;-77
2021/12/20 09:33:18;;;;;;;12.65;5.78;;;;;;;6.45;100.00;100426.47;5085881;28;20910;-78
2021/12/20 09:35:46;;;;;;;10.17;5.77;;;;;;;6.51;100.00;100436.13;5080532;28;20435;-78
2021/12/20 09:38:17;;;;;;;12.00;6.80;;;;;;;6.80;100.00;100427.22;5080734;28;20491;-80
2021/12/20 09:41:13;;;;;;;10.38;6.35;;;;;;;6.78;100.00;100424.81;5078059;28;20848;-79
2021/12/20 09:43:55;;;;;;;8.95;5.80;;;;;;;6.75;100.00;100435.84;5087055;28;20415;-79
2021/12/20 09:46:28;;;;;;;13.18;6.55;;;;;;;6.92;100.00;100436.19;5088829;28;20959;-79
2021/12/20 09:48:57;;;;;;;11.40;6.07;;;;;;;6.83;100.00;100432.03;5099753;28;20459;-79
2021/12/20 09:51:25;;;;;;;11.43;6.30;;;;;;;7.03;100.00;100425.28;5089008;28;20400;-79
2021/12/20 09:53:55;;;;;;;10.68;5.70;;;;;;;6.71;100.00;100426.63;5092048;28;20438;-82
2021/12/20 09:56:26;;;;;;;12.05;5.82;;;;;;;6.83;100.00;100423.72;5070860;28;20389;-80
2021/12/20 09:58:57;;;;;;;11.00;5.75;;;;;;;6.63;100.00;100428.47;5070461;28;20452;-84
2021/12/20 10:01:27;;;;;;;9.05;5.65;;;;;;;6.57;100.00;100423.56;5085351;28;20392;-81
2021/12/20 10:03:56;;;;;;;9.63;5.05;;;;;;;6.56;100.00;100430.25;5083372;28;20471;-80
2021/12/20 10:06:23;;;;;;;10.68;4.70;;;;;;;6.68;100.00;100421.81;5092417;28;20395;-84
2021/12/20 10:08:53;;;;;;;10.07;4.30;;;;;;;6.42;100.00;100424.41;5090770;28;20427;-83
2021/12/20 10:11:26;;;;;;;9.18;4.15;;;;;;;6.65;100.00;100434.44;5090730;28;20399;-83
2021/12/20 10:14:16;;;;;;;10.90;4.15;;;;;;;6.58;100.00;100423.19;5070485;28;20950;-81
2021/12/20 10:16:45;;;;;;;10.05;4.07;;;;;;;6.74;100.00;100431.47;5068304;28;20979;-83
2021/12/20 10:19:28;;;;;;;8.30;3.93;;;;;;;6.60;100.00;100429.19;5074171;28;20385;-84
2021/12/20 10:21:59;;;;;;;7.20;3.80;;;;;;;6.66;100.00;100438.84;5091801;28;20388;-84
2021/12/20 10:24:35;;;;;;;10.60;4.07;;;;;;;6.81;100.00;100423.25;5070880;28;20906;-84
2021/12/20 10:27:04;;;;;;;5.50;3.10;;;;;;;6.51;100.00;100420.25;5091089;28;20380;-82
2021/12/20 10:29:36;;;;;;;9.07;3.70;;;;;;;6.72;100.00;100419.91;5090188;28;20416;-85
2021/12/20 10:32:05;;;;;;;7.55;3.53;;;;;;;6.86;100.00;100428.53;5107095;28;20862;-82
2021/12/20 10:34:34;;;;;;;7.80;3.47;;;;;;;6.91;100.00;100429.03;5090640;28;20487;-81
2021/12/20 10:37:04;;;;;;;7.17;3.47;;;;;;;7.03;100.00;100425.28;5091450;28;20417;-84
2021/12/20 10:39:43;;;;;;;10.93;4.50;;;;;;;6.67;100.00;100417.41;5055009;28;20451;-80
2021/12/20 10:42:24;;;;;;;10.20;4.15;;;;;;;6.91;100.00;100417.09;5091282;28;20392;-83
2021/12/20 10:45:13;;;;;;;16.67;4.60;;;;;;;6.82;100.00;100417.34;5090503;28;20404;-84
2021/12/20 10:47:42;;;;;;;7.70;4.00;;;;;;;6.93;100.00;100412.00;5073752;28;20400;-82
2021/12/20 10:50:32;;;;;;;10.18;4.32;;;;;;;6.77;100.00;100417.63;5090885;28;20388;-84
2021/12/20 10:53:22;;;;;;;12.30;5.22;;;;;;;6.57;100.00;100423.56;5090432;28;20384;-83
2021/12/20 10:55:51;;;;;;;16.80;7.10;;;;;;;6.28;100.00;100421.31;5080964;28;20406;-81
2021/12/20 10:58:34;;;;;;;18.33;7.45;;;;;;;6.41;100.00;100420.00;5072834;28;20920;-82
2021/12/20 11:01:06;;;;;;;29.25;12.23;;;;;;;6.64;100.00;100407.84;5090064;28;20416;-80
2021/12/20 11:10:28;;;;;;;24.63;12.07;;;;;;;6.29;100.00;100397.94;5084710;28;20408;-83
2021/12/20 11:12:55;;;;;;;27.30;12.40;;;;;;;6.74;100.00;100409.25;5106127;28;20541;-79
2021/12/20 11:15:28;;;;;;;27.77;12.52;;;;;;;6.80;100.00;100410.56;5082742;28;20393;-83
2021/12/20 11:17:55;;;;;;;25.35;12.90;;;;;;;6.48;100.00;100414.63;5071769;28;20395;-84
2021/12/20 11:20:23;;;;;;;26.83;12.80;;;;;;;6.44;100.00;100385.97;5090130;28;20404;-83
2021/12/20 11:23:02;;;;;;;26.50;12.47;;;;;;;6.92;100.00;100394.50;5091111;28;20384;-86
2021/12/20 11:25:30;;;;;;;28.88;13.80;;;;;;;6.46;100.00;100395.56;5074289;28;20382;-85
2021/12/20 11:27:57;;;;;;;26.20;13.27;;;;;;;6.65;100.00;100409.44;5087451;28;20440;-78
2021/12/20 11:30:27;;;;;;;27.10;12.70;;;;;;;6.52;100.00;100398.84;5090175;28;20430;-78
2021/12/20 11:32:55;;;;;;;27.35;12.60;;;;;;;6.82;100.00;100391.53;5078663;28;20385;-80
2021/12/20 11:35:27;;;;;;;31.83;12.65;;;;;;;6.39;100.00;100391.81;5086969;28;20388;-76
2021/12/20 11:38:00;;;;;;;25.10;11.85;;;;;;;6.50;100.00;100373.41;5088748;28;20396;-81
2021/12/20 11:40:28;;;;;;;29.80;12.48;;;;;;;6.78;100.00;100387.88;5087999;28;20400;-79
2021/12/20 11:42:58;;;;;;;27.15;12.15;;;;;;;6.68;100.00;100391.25;5087251;28;20490;-78
2021/12/20 11:45:27;;;;;;;25.48;13.13;;;;;;;6.76;100.00;100393.00;5089014;28;20388;-78
2021/12/20 11:48:11;;;;;;;25.65;12.27;;;;;;;6.64;100.00;100393.94;5089030;28;20757;-79
2021/12/20 11:50:42;;;;;;;27.38;12.05;;;;;;;6.46;100.00;100372.53;5072016;28;20385;-79
2021/12/20 11:53:15;;;;;;;24.85;11.65;;;;;;;6.68;100.00;100380.16;5084358;28;20400;-79
2021/12/20 11:56:01;;;;;;;28.73;11.60;;;;;;;6.60;100.00;100381.16;5090973;28;20475;-79
2021/12/20 11:58:31;;;;;;;20.95;10.85;;;;;;;6.82;100.00;100385.97;5075023;28;20400;-82